createdAt,value
2023-09-17T00:01:17.101Z,16.93
2023-09-17T00:03:44.359Z,16.92
2023-09-17T00:06:11.393Z,17.03
2023-09-17T00:08:38.532Z,17.03
2023-09-17T00:11:06.518Z,17.01
2023-09-17T00:13:33.691Z,16.91
2023-09-17T00:16:01.154Z,16.86
2023-09-17T00:18:28.517Z,16.90
2023-09-17T00:20:55.786Z,16.83
2023-09-17T00:23:22.792Z,16.76
2023-09-17T00:25:49.880Z,16.65
2023-09-17T00:28:16.855Z,16.50
2023-09-17T00:30:45.219Z,16.38
2023-09-17T00:33:12.452Z,16.28
2023-09-17T00:35:39.480Z,16.31
2023-09-17T00:38:06.604Z,16.31
2023-09-17T00:40:37.958Z,16.35
2023-09-17T00:43:23.668Z,16.45
2023-09-17T00:46:53.679Z,16.38
2023-09-17T00:50:26.044Z,16.23
2023-09-17T00:53:55.592Z,16.25
2023-09-17T00:57:27.716Z,16.33
2023-09-17T01:00:57.482Z,16.26
2023-09-17T01:04:29.677Z,16.10
2023-09-17T01:08:00.041Z,16.05
2023-09-17T01:11:31.729Z,16.03
2023-09-17T01:15:01.731Z,15.98
2023-09-17T01:18:33.422Z,15.99
2023-09-17T01:22:04.096Z,15.96
2023-09-17T01:25:35.190Z,15.97
2023-09-17T01:29:05.122Z,16.04
2023-09-17T01:32:37.218Z,16.08
2023-09-17T01:36:07.925Z,16.11
2023-09-17T01:39:39.295Z,16.09
2023-09-17T01:43:08.958Z,16.20
2023-09-17T01:46:40.867Z,16.29
2023-09-17T01:50:11.174Z,16.33
2023-09-17T01:53:43.269Z,16.32
2023-09-17T01:57:13.158Z,16.20
2023-09-17T02:00:44.141Z,16.04
2023-09-17T02:04:14.058Z,16.03
2023-09-17T02:07:45.136Z,16.08
2023-09-17T02:11:15.819Z,16.04
2023-09-17T02:14:48.264Z,15.98
2023-09-17T02:18:18.660Z,15.96
2023-09-17T02:21:49.078Z,15.91
2023-09-17T02:25:19.014Z,15.96
2023-09-17T02:28:48.882Z,16.07
2023-09-17T02:32:12.693Z,16.01
2023-09-17T02:35:36.426Z,16.04
2023-09-17T02:39:00.468Z,15.89
2023-09-17T02:42:24.498Z,15.84
2023-09-17T02:45:49.977Z,15.81
2023-09-17T02:49:19.607Z,15.88
2023-09-17T02:52:47.418Z,15.89
2023-09-17T02:56:16.845Z,15.87
2023-09-17T02:59:44.957Z,15.77
2023-09-17T03:03:15.141Z,15.62
2023-09-17T03:06:42.882Z,15.49
2023-09-17T03:10:13.280Z,15.19
2023-09-17T03:13:41.837Z,15.18
2023-09-17T03:17:11.413Z,15.18
2023-09-17T03:20:39.722Z,15.09
2023-09-17T03:24:03.731Z,15.30
2023-09-17T03:27:28.088Z,15.24
2023-09-17T03:30:52.382Z,15.24
2023-09-17T03:34:16.269Z,15.29
2023-09-17T03:37:40.286Z,15.23
2023-09-17T03:41:04.196Z,15.30
2023-09-17T03:44:34.218Z,15.35
2023-09-17T03:48:06.284Z,15.39
2023-09-17T03:51:36.318Z,15.32
2023-09-17T03:55:00.303Z,15.09
2023-09-17T03:58:31.017Z,15.04
2023-09-17T04:02:01.928Z,15.19
2023-09-17T04:05:33.166Z,15.37
2023-09-17T04:09:05.373Z,15.52
2023-09-17T04:12:32.946Z,15.55
2023-09-17T04:16:05.572Z,15.62
2023-09-17T04:19:36.238Z,15.84
2023-09-17T04:23:08.140Z,16.12
2023-09-17T04:26:38.220Z,16.23
2023-09-17T04:30:14.348Z,16.47
2023-09-17T04:33:50.232Z,16.75
2023-09-17T04:37:25.019Z,17.04
2023-09-17T04:40:57.689Z,17.29
2023-09-17T04:44:29.685Z,17.54
2023-09-17T04:48:00.199Z,17.65
2023-09-17T04:51:33.198Z,17.83
2023-09-17T04:55:05.007Z,17.89
2023-09-17T04:58:36.337Z,18.03
2023-09-17T05:02:09.600Z,18.38
2023-09-17T05:05:44.152Z,18.76
2023-09-17T05:09:19.018Z,19.12
2023-09-17T05:12:46.774Z,19.41
2023-09-17T05:16:16.869Z,19.77
2023-09-17T05:19:41.369Z,20.19
2023-09-17T05:23:05.263Z,20.45
2023-09-17T05:26:35.113Z,20.81
2023-09-17T05:30:06.683Z,20.95
2023-09-17T05:33:38.173Z,21.30
2023-09-17T05:37:08.209Z,21.65
2023-09-17T05:40:39.610Z,21.94
2023-09-17T05:44:09.943Z,22.24
2023-09-17T05:47:40.404Z,22.53
2023-09-17T05:51:10.138Z,22.84
2023-09-17T05:54:41.744Z,22.96
2023-09-17T05:58:12.776Z,23.21
2023-09-17T06:01:42.995Z,23.59
2023-09-17T06:05:13.462Z,23.83
2023-09-17T06:07:42.785Z,24.21
2023-09-17T06:10:10.100Z,24.59
2023-09-17T06:12:37.210Z,24.79
2023-09-17T06:15:06.356Z,24.93
2023-09-17T06:17:33.612Z,25.01
2023-09-17T06:20:00.627Z,25.25
2023-09-17T06:22:27.858Z,25.42
2023-09-17T06:24:56.027Z,25.64
2023-09-17T06:27:22.977Z,25.92
2023-09-17T06:29:50.284Z,26.16
2023-09-17T06:32:17.776Z,26.34
2023-09-17T06:34:44.703Z,26.48
2023-09-17T06:37:12.306Z,26.69
2023-09-17T06:39:39.199Z,26.92
2023-09-17T06:42:06.368Z,27.07
2023-09-17T06:44:34.151Z,27.19
2023-09-17T06:47:01.380Z,27.31
2023-09-17T06:49:28.736Z,27.54
2023-09-17T06:51:56.397Z,27.65
2023-09-17T06:54:23.358Z,27.70
2023-09-17T06:56:50.442Z,27.94
2023-09-17T06:59:17.496Z,28.23
2023-09-17T07:01:46.169Z,28.35
2023-09-17T07:04:13.637Z,28.63
2023-09-17T07:06:40.966Z,28.81
2023-09-17T07:09:08.491Z,29.12
2023-09-17T07:11:35.605Z,29.30
2023-09-17T07:14:10.016Z,29.36
2023-09-17T07:16:37.295Z,29.51
2023-09-17T07:19:07.049Z,29.60
2023-09-17T07:21:34.088Z,29.71
2023-09-17T07:24:01.211Z,29.69
2023-09-17T07:26:28.751Z,29.74
2023-09-17T07:28:56.231Z,29.88
2023-09-17T07:31:23.435Z,29.97
2023-09-17T07:33:50.725Z,30.05
2023-09-17T07:36:18.133Z,30.14
2023-09-17T07:38:45.079Z,30.31
2023-09-17T07:41:12.392Z,30.39
2023-09-17T07:43:39.531Z,30.34
2023-09-17T07:46:06.799Z,30.42
2023-09-17T07:48:33.704Z,30.54
2023-09-17T07:51:01.460Z,30.62
2023-09-17T07:53:28.671Z,30.63
2023-09-17T07:55:56.879Z,30.66
2023-09-17T07:58:24.216Z,30.66
2023-09-17T08:00:51.250Z,30.63
2023-09-17T08:03:18.353Z,30.64
2023-09-17T08:05:47.273Z,30.70
2023-09-17T08:08:15.332Z,30.67
2023-09-17T08:10:42.594Z,30.87
2023-09-17T08:13:09.645Z,30.99
2023-09-17T08:15:37.096Z,30.98
2023-09-17T08:18:04.275Z,30.95
2023-09-17T08:20:31.476Z,31.01
2023-09-17T08:22:59.286Z,31.08
2023-09-17T08:25:27.302Z,31.10
2023-09-17T08:27:54.452Z,31.35
2023-09-17T08:30:21.850Z,31.29
2023-09-17T08:32:49.493Z,31.25
2023-09-17T08:35:16.636Z,31.34
2023-09-17T08:37:43.845Z,31.53
2023-09-17T08:40:15.406Z,31.68
2023-09-17T08:42:42.773Z,31.58
2023-09-17T08:45:10.581Z,31.40
2023-09-17T08:47:38.373Z,31.14
2023-09-17T08:50:06.525Z,30.96
2023-09-17T08:52:34.062Z,30.94
2023-09-17T08:55:02.762Z,30.94
2023-09-17T08:57:30.324Z,31.12
2023-09-17T09:00:09.031Z,31.33
2023-09-17T09:02:45.189Z,31.58
2023-09-17T09:05:15.658Z,31.81
2023-09-17T09:07:44.412Z,31.91
2023-09-17T09:10:13.340Z,31.84
2023-09-17T09:12:40.911Z,31.90
2023-09-17T09:15:10.607Z,31.96
2023-09-17T09:17:39.590Z,32.06
2023-09-17T09:20:10.445Z,32.14
2023-09-17T09:22:38.244Z,32.19
2023-09-17T09:25:06.976Z,32.18
2023-09-17T09:27:34.028Z,32.18
2023-09-17T09:30:01.728Z,32.18
2023-09-17T09:32:29.067Z,32.25
2023-09-17T09:34:56.065Z,32.22
2023-09-17T09:37:23.778Z,32.19
2023-09-17T09:39:50.888Z,32.21
2023-09-17T09:42:17.964Z,32.37
2023-09-17T09:44:45.112Z,32.51
2023-09-17T09:47:12.065Z,32.54
2023-09-17T09:49:43.081Z,32.53
2023-09-17T09:52:12.324Z,32.66
2023-09-17T09:54:43.174Z,32.67
2023-09-17T09:57:16.778Z,32.67
2023-09-17T09:59:46.624Z,32.72
2023-09-17T10:02:14.909Z,32.82
2023-09-17T10:04:43.873Z,32.93
2023-09-17T10:07:10.801Z,33.03
2023-09-17T10:09:37.944Z,33.17
2023-09-17T10:12:05.330Z,33.26
2023-09-17T10:14:35.855Z,33.23
2023-09-17T10:17:02.855Z,33.24
2023-09-17T10:19:30.389Z,33.21
2023-09-17T10:21:57.462Z,33.25
2023-09-17T10:24:24.461Z,33.26
2023-09-17T10:26:51.477Z,33.28
2023-09-17T10:29:18.805Z,33.27
2023-09-17T10:31:45.756Z,33.19
2023-09-17T10:34:14.115Z,33.21
2023-09-17T10:36:41.309Z,33.19
2023-09-17T10:39:10.432Z,33.10
2023-09-17T10:41:37.950Z,33.02
2023-09-17T10:44:05.359Z,32.92
2023-09-17T10:46:32.572Z,32.85
2023-09-17T10:49:00.018Z,32.93
2023-09-17T10:51:27.866Z,32.97
2023-09-17T10:53:55.185Z,33.05
2023-09-17T10:56:22.227Z,33.12
2023-09-17T10:58:52.712Z,33.13
2023-09-17T11:01:27.790Z,33.19
2023-09-17T11:04:22.957Z,33.31
2023-09-17T11:06:50.532Z,33.29
2023-09-17T11:09:17.853Z,33.19
2023-09-17T11:11:44.824Z,33.11
2023-09-17T11:14:13.129Z,33.15
2023-09-17T11:16:40.243Z,33.26
2023-09-17T11:19:10.695Z,33.37
2023-09-17T11:21:39.686Z,33.34
2023-09-17T11:24:11.030Z,33.36
2023-09-17T11:26:39.956Z,33.31
2023-09-17T11:29:07.766Z,33.38
2023-09-17T11:31:36.782Z,33.51
2023-09-17T11:34:06.441Z,33.56
2023-09-17T11:36:33.534Z,33.37
2023-09-17T11:39:04.432Z,33.34
2023-09-17T11:41:36.662Z,33.32
2023-09-17T11:44:04.905Z,33.35
2023-09-17T11:46:34.069Z,33.25
2023-09-17T11:49:02.504Z,33.09
2023-09-17T11:51:30.865Z,32.98
2023-09-17T11:54:06.015Z,33.02
2023-09-17T11:56:34.775Z,33.04
2023-09-17T11:59:09.886Z,33.01
2023-09-17T12:01:39.459Z,32.94
2023-09-17T12:04:07.821Z,32.97
2023-09-17T12:06:36.860Z,32.99
2023-09-17T12:09:11.454Z,32.98
2023-09-17T12:11:38.514Z,32.97
2023-09-17T12:14:07.204Z,32.94
2023-09-17T12:16:35.281Z,32.89
2023-09-17T12:19:15.942Z,32.85
2023-09-17T12:21:49.671Z,32.86
2023-09-17T12:24:44.890Z,32.78
2023-09-17T12:27:35.671Z,32.81
2023-09-17T12:30:06.723Z,32.87
2023-09-17T12:32:34.848Z,32.86
2023-09-17T12:35:03.800Z,32.91
2023-09-17T12:37:31.053Z,32.94
2023-09-17T12:39:58.190Z,32.97
2023-09-17T12:42:25.319Z,32.96
2023-09-17T12:44:53.280Z,32.84
2023-09-17T12:47:20.719Z,32.84
2023-09-17T12:49:47.993Z,32.86
2023-09-17T12:52:16.340Z,32.78
2023-09-17T12:54:43.653Z,32.69
2023-09-17T12:57:10.632Z,32.55
2023-09-17T12:59:41.729Z,32.52
2023-09-17T13:02:09.165Z,32.56
2023-09-17T13:04:37.541Z,32.61
2023-09-17T13:07:06.565Z,32.57
2023-09-17T13:09:33.503Z,32.45
2023-09-17T13:12:03.809Z,32.32
2023-09-17T13:14:31.997Z,32.20
2023-09-17T13:16:59.054Z,32.09
2023-09-17T13:19:26.883Z,32.04
2023-09-17T13:21:53.957Z,32.03
2023-09-17T13:24:21.411Z,32.06
2023-09-17T13:26:48.385Z,32.05
2023-09-17T13:29:15.322Z,32.07
2023-09-17T13:31:42.554Z,32.11
2023-09-17T13:34:11.067Z,32.01
2023-09-17T13:36:38.590Z,31.92
2023-09-17T13:39:05.749Z,31.84
2023-09-17T13:41:32.869Z,31.77
2023-09-17T13:43:59.983Z,31.78
2023-09-17T13:46:28.351Z,31.77
2023-09-17T13:48:55.849Z,31.75
2023-09-17T13:51:22.881Z,31.74
2023-09-17T13:53:49.872Z,31.72
2023-09-17T13:56:16.907Z,31.64
2023-09-17T13:58:44.263Z,31.63
2023-09-17T14:01:12.856Z,31.62
2023-09-17T14:03:39.786Z,31.58
2023-09-17T14:06:07.078Z,31.52
2023-09-17T14:08:34.864Z,31.47
2023-09-17T14:11:03.841Z,31.41
2023-09-17T14:13:31.203Z,31.38
2023-09-17T14:15:58.112Z,31.21
2023-09-17T14:18:25.087Z,31.05
2023-09-17T14:20:52.122Z,30.96
2023-09-17T14:23:19.110Z,30.98
2023-09-17T14:25:46.051Z,30.94
2023-09-17T14:28:13.376Z,30.96
2023-09-17T14:30:40.435Z,30.93
2023-09-17T14:33:07.414Z,30.95
2023-09-17T14:35:34.754Z,30.89
2023-09-17T14:38:01.967Z,30.84
2023-09-17T14:40:29.387Z,30.83
2023-09-17T14:42:56.836Z,30.85
2023-09-17T14:45:23.918Z,30.82
2023-09-17T14:48:09.341Z,30.73
2023-09-17T14:50:54.929Z,30.69
2023-09-17T14:53:49.165Z,30.60
2023-09-17T14:56:42.018Z,30.60
2023-09-17T14:59:33.829Z,30.51
2023-09-17T15:02:19.438Z,30.40
2023-09-17T15:05:05.599Z,30.39
2023-09-17T15:07:58.250Z,30.36
2023-09-17T15:10:44.356Z,30.25
2023-09-17T15:13:29.854Z,30.27
2023-09-17T15:16:16.113Z,30.22
2023-09-17T15:19:01.638Z,30.11
2023-09-17T15:21:47.716Z,30.05
2023-09-17T15:24:33.764Z,29.93
2023-09-17T15:27:25.909Z,29.78
2023-09-17T15:30:12.359Z,29.65
2023-09-17T15:32:58.374Z,29.52
2023-09-17T15:35:44.236Z,29.38
2023-09-17T15:38:38.358Z,29.27
2023-09-17T15:41:31.250Z,29.12
2023-09-17T15:44:17.438Z,29.09
2023-09-17T15:47:03.160Z,28.96
2023-09-17T15:49:51.449Z,28.75
2023-09-17T15:52:44.025Z,28.64
2023-09-17T15:55:38.161Z,28.46
2023-09-17T15:58:30.381Z,28.16
2023-09-17T16:01:16.479Z,27.97
2023-09-17T16:04:40.467Z,27.80
2023-09-17T16:08:04.976Z,27.56
2023-09-17T16:11:28.958Z,27.43
2023-09-17T16:14:52.892Z,27.13
2023-09-17T16:18:20.777Z,26.93
2023-09-17T16:21:44.809Z,26.63
2023-09-17T16:25:08.488Z,26.42
2023-09-17T16:28:38.230Z,26.30
2023-09-17T16:32:05.777Z,26.07
2023-09-17T16:35:36.209Z,26.07
2023-09-17T16:39:04.066Z,25.85
2023-09-17T16:42:33.479Z,25.74
2023-09-17T16:46:01.444Z,25.56
2023-09-17T16:49:31.377Z,25.16
2023-09-17T16:52:59.035Z,25.07
2023-09-17T16:56:28.742Z,25.01
2023-09-17T16:59:56.563Z,24.61
2023-09-17T17:03:26.538Z,24.21
2023-09-17T17:06:54.229Z,24.01
2023-09-17T17:10:23.662Z,24.00
2023-09-17T17:13:51.534Z,23.84
2023-09-17T17:17:22.313Z,23.78
2023-09-17T17:20:50.256Z,23.62
2023-09-17T17:24:19.805Z,23.31
2023-09-17T17:27:47.873Z,23.08
2023-09-17T17:31:17.580Z,23.03
2023-09-17T17:34:45.672Z,22.82
2023-09-17T17:38:15.578Z,22.71
2023-09-17T17:41:43.182Z,22.65
2023-09-17T17:45:11.335Z,22.52
2023-09-17T17:48:41.667Z,22.48
2023-09-17T17:52:11.065Z,22.36
2023-09-17T17:55:39.054Z,22.22
2023-09-17T17:59:09.208Z,22.17
2023-09-17T18:02:37.061Z,22.16
2023-09-17T18:06:08.784Z,22.20
2023-09-17T18:08:39.342Z,21.94
2023-09-17T18:11:06.626Z,21.82
2023-09-17T18:13:33.909Z,21.62
2023-09-17T18:16:01.220Z,21.65
2023-09-17T18:18:29.043Z,21.58
2023-09-17T18:20:56.101Z,21.52
2023-09-17T18:23:24.878Z,21.39
2023-09-17T18:25:52.228Z,21.38
2023-09-17T18:28:19.457Z,21.21
2023-09-17T18:30:46.756Z,21.20
2023-09-17T18:33:14.023Z,21.12
2023-09-17T18:35:41.172Z,21.12
2023-09-17T18:38:08.372Z,21.09
2023-09-17T18:40:35.556Z,21.08
2023-09-17T18:43:03.128Z,20.97
2023-09-17T18:45:30.346Z,20.84
2023-09-17T18:47:57.946Z,20.77
2023-09-17T18:50:25.190Z,20.73
2023-09-17T18:52:52.325Z,20.73
2023-09-17T18:55:19.500Z,20.78
2023-09-17T18:57:46.798Z,20.74
2023-09-17T19:00:16.011Z,20.73
2023-09-17T19:02:44.712Z,20.65
2023-09-17T19:05:13.049Z,20.59
2023-09-17T19:07:40.216Z,20.60
2023-09-17T19:10:11.703Z,20.48
2023-09-17T19:12:38.976Z,20.42
2023-09-17T19:15:07.484Z,20.38
2023-09-17T19:17:35.416Z,20.40
2023-09-17T19:20:03.215Z,20.33
2023-09-17T19:22:30.898Z,20.31
2023-09-17T19:24:58.140Z,20.33
2023-09-17T19:27:25.222Z,20.15
2023-09-17T19:29:52.236Z,20.15
2023-09-17T19:32:20.453Z,20.10
2023-09-17T19:34:47.632Z,19.85
2023-09-17T19:37:15.723Z,19.84
2023-09-17T19:39:42.774Z,19.85
2023-09-17T19:42:09.786Z,19.84
2023-09-17T19:44:37.971Z,19.80
2023-09-17T19:47:05.913Z,19.80
2023-09-17T19:49:32.924Z,19.68
2023-09-17T19:51:59.858Z,19.54
2023-09-17T19:54:26.921Z,19.51
2023-09-17T19:56:53.878Z,19.30
2023-09-17T19:59:21.184Z,19.31
2023-09-17T20:01:49.281Z,19.39
2023-09-17T20:04:16.423Z,19.38
2023-09-17T20:06:53.824Z,19.34
2023-09-17T20:09:22.166Z,19.34
2023-09-17T20:11:49.610Z,19.46
2023-09-17T20:14:16.688Z,19.43
2023-09-17T20:16:43.838Z,19.29
2023-09-17T20:19:12.124Z,19.30
2023-09-17T20:21:39.680Z,19.30
2023-09-17T20:24:07.336Z,19.33
2023-09-17T20:26:36.877Z,19.29
2023-09-17T20:29:04.784Z,19.31
2023-09-17T20:31:31.853Z,19.26
2023-09-17T20:34:00.498Z,19.23
2023-09-17T20:36:27.636Z,19.15
2023-09-17T20:38:54.926Z,19.14
2023-09-17T20:41:23.769Z,19.11
2023-09-17T20:43:50.904Z,19.02
2023-09-17T20:46:18.150Z,18.97
2023-09-17T20:48:45.217Z,18.96
2023-09-17T20:51:12.306Z,18.97
2023-09-17T20:53:39.328Z,18.99
2023-09-17T20:56:06.310Z,18.83
2023-09-17T20:58:35.540Z,18.74
2023-09-17T21:01:02.684Z,18.72
2023-09-17T21:03:30.349Z,18.73
2023-09-17T21:05:57.853Z,18.68
2023-09-17T21:08:25.265Z,18.65
2023-09-17T21:10:52.605Z,18.73
2023-09-17T21:13:19.654Z,18.80
2023-09-17T21:15:46.625Z,18.75
2023-09-17T21:18:14.052Z,18.64
2023-09-17T21:20:41.094Z,18.56
2023-09-17T21:23:08.463Z,18.61
2023-09-17T21:25:35.716Z,18.53
2023-09-17T21:28:03.103Z,18.53
2023-09-17T21:30:31.496Z,18.52
2023-09-17T21:32:58.543Z,18.54
2023-09-17T21:35:25.775Z,18.55
2023-09-17T21:37:52.723Z,18.52
2023-09-17T21:40:20.022Z,18.61
2023-09-17T21:42:47.664Z,18.68
2023-09-17T21:45:14.967Z,18.68
2023-09-17T21:47:42.396Z,18.75
2023-09-17T21:50:10.950Z,18.81
2023-09-17T21:52:38.160Z,18.81
2023-09-17T21:55:05.726Z,18.77
2023-09-17T21:57:32.765Z,18.68
2023-09-17T21:59:59.966Z,18.61
2023-09-17T22:02:27.464Z,18.35
2023-09-17T22:04:54.678Z,18.32
2023-09-17T22:07:21.838Z,18.32
2023-09-17T22:09:49.041Z,18.22
2023-09-17T22:12:16.428Z,18.12
2023-09-17T22:14:43.549Z,18.12
2023-09-17T22:17:11.367Z,18.20
2023-09-17T22:19:41.226Z,18.12
2023-09-17T22:22:08.628Z,18.03
2023-09-17T22:24:36.035Z,17.95
2023-09-17T22:27:03.489Z,17.77
2023-09-17T22:29:30.712Z,17.66
2023-09-17T22:31:57.965Z,17.60
2023-09-17T22:34:24.797Z,17.68
2023-09-17T22:36:51.938Z,17.70
2023-09-17T22:39:19.372Z,17.68
2023-09-17T22:41:46.329Z,17.68
2023-09-17T22:44:23.853Z,17.79
2023-09-17T22:46:52.288Z,17.58
2023-09-17T22:49:19.600Z,17.46
2023-09-17T22:51:46.500Z,17.44
2023-09-17T22:54:13.292Z,17.45
2023-09-17T22:56:40.300Z,17.38
2023-09-17T22:59:07.455Z,17.46
2023-09-17T23:01:35.183Z,17.47
2023-09-17T23:04:02.448Z,17.49
2023-09-17T23:06:29.656Z,17.45
2023-09-17T23:09:02.034Z,17.43
2023-09-17T23:11:29.811Z,17.45
2023-09-17T23:13:57.101Z,17.32
2023-09-17T23:16:24.087Z,17.20
2023-09-17T23:18:54.820Z,17.08
2023-09-17T23:21:22.327Z,17.01
2023-09-17T23:23:50.593Z,17.05
2023-09-17T23:26:17.904Z,17.05
2023-09-17T23:28:46.621Z,16.90
2023-09-17T23:31:13.626Z,16.88
2023-09-17T23:33:40.694Z,16.89
2023-09-17T23:36:07.876Z,16.81
2023-09-17T23:38:37.637Z,16.78
2023-09-17T23:41:05.878Z,16.84
2023-09-17T23:43:33.440Z,16.91
2023-09-17T23:46:00.745Z,16.88
2023-09-17T23:48:28.687Z,16.88
2023-09-17T23:50:55.768Z,16.86
2023-09-17T23:53:22.936Z,16.80
2023-09-17T23:55:50.321Z,16.74
2023-09-17T23:58:17.631Z,16.63
